createdAt,value
2023-03-06T00:01:23.870Z,58.29
2023-03-06T00:04:32.445Z,58.11
2023-03-06T00:07:47.898Z,57.76
2023-03-06T00:11:04.872Z,57.46
2023-03-06T00:14:13.498Z,57.83
2023-03-06T00:17:21.961Z,57.60
2023-03-06T00:20:39.801Z,57.34
2023-03-06T00:23:47.873Z,57.14
2023-03-06T00:27:02.977Z,56.90
2023-03-06T00:30:05.550Z,57.20
2023-03-06T00:33:19.930Z,56.75
2023-03-06T00:36:34.945Z,57.07
2023-03-06T00:39:37.145Z,56.94
2023-03-06T00:42:52.906Z,56.88
2023-03-06T00:45:54.844Z,56.83
2023-03-06T00:49:10.927Z,56.14
2023-03-06T00:52:19.863Z,56.20
2023-03-06T00:55:28.941Z,56.25
2023-03-06T00:58:37.503Z,56.30
2023-03-06T01:01:51.961Z,56.55
2023-03-06T01:04:53.896Z,56.52
2023-03-06T01:08:09.944Z,56.50
2023-03-06T01:11:17.940Z,56.79
2023-03-06T01:14:33.897Z,56.42
2023-03-06T01:17:41.955Z,56.43
2023-03-06T01:20:57.233Z,56.29
2023-03-06T01:24:05.985Z,56.41
2023-03-06T01:27:20.929Z,56.35
2023-03-06T01:30:29.498Z,56.42
2023-03-06T01:33:38.005Z,56.27
2023-03-06T01:36:53.121Z,56.01
2023-03-06T01:40:07.968Z,56.63
2023-03-06T01:43:39.918Z,56.25
2023-03-06T01:46:43.646Z,56.71
2023-03-06T01:50:00.008Z,56.53
2023-03-06T01:53:01.956Z,56.46
2023-03-06T01:56:20.003Z,57.45
2023-03-06T01:59:23.681Z,56.47
2023-03-06T02:02:39.060Z,56.17
2023-03-06T02:05:42.608Z,56.12
2023-03-06T02:08:59.049Z,56.11
2023-03-06T02:12:09.940Z,56.25
2023-03-06T02:15:28.954Z,55.91
2023-03-06T02:18:52.946Z,55.81
2023-03-06T02:22:09.955Z,55.62
2023-03-06T02:25:38.569Z,56.11
2023-03-06T02:28:46.961Z,55.83
2023-03-06T02:31:56.138Z,56.03
2023-03-06T02:35:11.946Z,55.57
2023-03-06T02:38:17.642Z,55.32
2023-03-06T02:41:33.015Z,55.46
2023-03-06T02:44:47.933Z,55.26
2023-03-06T02:47:49.831Z,55.39
2023-03-06T02:51:04.976Z,54.92
2023-03-06T02:54:13.593Z,55.00
2023-03-06T02:57:21.956Z,54.92
2023-03-06T03:00:39.023Z,55.14
2023-03-06T03:03:41.865Z,54.99
2023-03-06T03:06:57.064Z,55.39
2023-03-06T03:09:58.907Z,54.37
2023-03-06T03:13:14.003Z,54.37
2023-03-06T03:16:23.063Z,54.55
2023-03-06T03:19:37.950Z,54.19
2023-03-06T03:22:57.967Z,54.24
2023-03-06T03:26:14.939Z,54.91
2023-03-06T03:29:17.589Z,54.70
2023-03-06T03:32:33.077Z,54.62
2023-03-06T03:35:42.112Z,54.37
2023-03-06T03:38:50.602Z,54.56
2023-03-06T03:41:58.961Z,54.62
2023-03-06T03:45:14.957Z,54.60
2023-03-06T03:48:16.722Z,54.39
2023-03-06T03:51:31.028Z,54.31
2023-03-06T03:54:33.648Z,54.24
2023-03-06T03:57:47.998Z,54.47
2023-03-06T04:00:50.023Z,54.83
2023-03-06T04:04:05.017Z,54.30
2023-03-06T04:07:06.854Z,54.50
2023-03-06T04:10:21.978Z,54.48
2023-03-06T04:13:24.590Z,54.25
2023-03-06T04:16:39.005Z,54.74
2023-03-06T04:19:53.994Z,55.06
2023-03-06T04:23:09.010Z,55.15
2023-03-06T04:26:10.820Z,55.07
2023-03-06T04:29:25.985Z,55.15
2023-03-06T04:32:34.635Z,55.05
2023-03-06T04:35:49.061Z,55.53
2023-03-06T04:38:50.992Z,55.79
2023-03-06T04:42:07.001Z,56.02
2023-03-06T04:45:23.098Z,56.03
2023-03-06T04:48:25.151Z,56.20
2023-03-06T04:51:40.035Z,56.76
2023-03-06T04:54:48.617Z,57.49
2023-03-06T04:58:05.011Z,57.91
2023-03-06T05:01:07.061Z,57.68
2023-03-06T05:04:22.029Z,57.57
2023-03-06T05:07:30.138Z,57.36
2023-03-06T05:10:45.058Z,57.36
2023-03-06T05:13:53.696Z,57.94
2023-03-06T05:17:02.007Z,58.59
2023-03-06T05:20:26.172Z,58.36
2023-03-06T05:23:29.184Z,58.09
2023-03-06T05:26:44.083Z,58.17
2023-03-06T05:29:53.026Z,58.63
2023-03-06T05:33:08.069Z,58.51
2023-03-06T05:36:17.066Z,58.86
2023-03-06T05:39:25.793Z,58.20
2023-03-06T05:42:40.042Z,58.25
2023-03-06T05:45:55.042Z,58.55
2023-03-06T05:49:10.150Z,58.84
2023-03-06T05:52:13.235Z,58.85
2023-03-06T05:55:28.014Z,58.83
2023-03-06T05:58:44.073Z,58.74
2023-03-06T06:01:46.516Z,59.37
2023-03-06T06:05:01.057Z,59.10
2023-03-06T06:08:02.958Z,59.60
2023-03-06T06:11:19.049Z,59.62
2023-03-06T06:14:28.077Z,59.29
2023-03-06T06:17:50.098Z,60.61
2023-03-06T06:21:05.142Z,58.58
2023-03-06T06:24:22.085Z,58.16
2023-03-06T06:27:30.634Z,58.09
2023-03-06T06:30:45.174Z,59.17
2023-03-06T06:33:53.721Z,58.73
2023-03-06T06:37:02.087Z,58.56
2023-03-06T06:40:18.037Z,59.20
2023-03-06T06:43:26.074Z,58.59
2023-03-06T06:50:11.091Z,59.60
2023-03-06T06:53:19.670Z,60.25
2023-03-06T06:56:34.103Z,60.39
2023-03-06T06:59:43.130Z,58.41
2023-03-06T07:02:52.081Z,60.21
2023-03-06T07:06:00.955Z,59.43
2023-03-06T07:09:17.094Z,60.56
2023-03-06T07:12:32.808Z,59.75
2023-03-06T07:15:41.167Z,60.36
2023-03-06T07:18:50.393Z,60.01
2023-03-06T07:22:05.180Z,59.65
2023-03-06T07:25:14.086Z,67.86
2023-03-06T07:28:22.999Z,59.99
2023-03-06T07:31:34.147Z,60.85
2023-03-06T07:34:50.425Z,51.44
2023-03-06T07:41:22.480Z,54.49
2023-03-06T07:44:30.901Z,52.71
2023-03-06T07:47:47.107Z,55.96
2023-03-06T07:51:07.187Z,52.98
2023-03-06T07:54:23.306Z,54.87
2023-03-06T07:57:32.127Z,56.90
2023-03-06T08:00:47.114Z,59.45
2023-03-06T08:03:55.959Z,61.31
2023-03-06T08:07:12.097Z,61.98
2023-03-06T08:10:27.667Z,62.88
2023-03-06T08:13:36.640Z,64.47
2023-03-06T08:16:51.114Z,66.29
2023-03-06T08:20:05.378Z,65.85
2023-03-06T08:23:14.062Z,66.12
2023-03-06T08:26:33.178Z,63.28
2023-03-06T08:29:35.146Z,64.39
2023-03-06T08:32:53.105Z,64.16
2023-03-06T08:36:08.138Z,66.37
2023-03-06T08:39:17.097Z,59.88
2023-03-06T08:42:32.121Z,59.37
2023-03-06T08:45:33.895Z,56.85
2023-03-06T08:48:49.134Z,54.61
2023-03-06T08:51:57.934Z,55.25
2023-03-06T08:55:07.246Z,56.64
2023-03-06T08:58:22.198Z,54.63
2023-03-06T09:01:33.433Z,57.88
2023-03-06T09:04:48.163Z,55.24
2023-03-06T09:08:03.171Z,52.93
2023-03-06T09:11:21.115Z,54.53
2023-03-06T09:14:31.209Z,56.81
2023-03-06T09:17:40.145Z,60.62
2023-03-06T09:20:55.120Z,57.60
2023-03-06T09:23:57.419Z,55.00
2023-03-06T09:27:44.159Z,56.76
2023-03-06T09:31:00.260Z,57.15
2023-03-06T09:34:08.949Z,57.37
2023-03-06T09:37:17.437Z,57.84
2023-03-06T09:40:39.134Z,56.42
2023-03-06T09:43:58.180Z,57.12
2023-03-06T09:47:21.826Z,55.78
2023-03-06T09:50:51.092Z,55.78
2023-03-06T09:54:11.151Z,54.88
2023-03-06T09:57:26.030Z,54.42
2023-03-06T10:00:45.191Z,55.97
2023-03-06T10:04:18.217Z,55.47
2023-03-06T10:07:23.708Z,51.71
2023-03-06T10:10:51.175Z,52.95
2023-03-06T10:14:07.507Z,54.50
2023-03-06T10:17:25.142Z,56.12
2023-03-06T10:20:39.352Z,57.04
2023-03-06T10:24:01.168Z,58.54
2023-03-06T10:27:22.223Z,54.82
2023-03-06T10:30:50.653Z,55.54
2023-03-06T10:34:08.166Z,56.29
2023-03-06T10:37:27.257Z,57.96
2023-03-06T10:40:50.214Z,55.57
2023-03-06T10:44:19.846Z,55.23
2023-03-06T10:47:36.161Z,56.45
2023-03-06T10:50:44.908Z,54.05
2023-03-06T10:54:01.214Z,54.61
2023-03-06T10:57:32.217Z,54.69
2023-03-06T11:01:07.440Z,53.51
2023-03-06T11:04:44.317Z,54.34
2023-03-06T11:07:56.472Z,53.58
2023-03-06T11:11:11.133Z,53.88
2023-03-06T11:14:33.251Z,54.71
2023-03-06T11:17:38.087Z,54.82
2023-03-06T11:20:57.225Z,56.01
2023-03-06T11:24:25.228Z,55.11
2023-03-06T11:27:38.222Z,55.80
2023-03-06T11:30:54.850Z,54.21
2023-03-06T11:34:15.203Z,53.33
2023-03-06T11:37:50.179Z,54.85
2023-03-06T11:41:05.299Z,54.55
2023-03-06T11:44:28.166Z,56.02
2023-03-06T11:47:47.242Z,54.73
2023-03-06T11:51:06.535Z,54.60
2023-03-06T11:54:19.215Z,54.38
2023-03-06T11:57:45.240Z,54.31
2023-03-06T12:01:07.241Z,54.28
2023-03-06T12:04:35.757Z,54.31
2023-03-06T12:08:04.204Z,54.27
2023-03-06T12:11:33.161Z,54.65
2023-03-06T12:15:18.183Z,57.67
2023-03-06T12:18:56.231Z,52.25
2023-03-06T12:22:23.356Z,55.48
2023-03-06T12:25:43.164Z,49.57
2023-03-06T12:29:28.283Z,50.18
2023-03-06T12:32:59.263Z,50.59
2023-03-06T12:36:28.469Z,49.93
2023-03-06T12:40:10.261Z,49.56
2023-03-06T12:43:51.409Z,53.25
2023-03-06T12:47:14.209Z,49.86
2023-03-06T12:50:32.561Z,48.33
2023-03-06T12:53:48.233Z,50.30
2023-03-06T12:56:52.004Z,49.11
2023-03-06T13:00:07.383Z,49.18
2023-03-06T13:03:48.257Z,51.15
2023-03-06T13:10:50.250Z,53.28
2023-03-06T13:13:58.720Z,53.31
2023-03-06T13:17:41.341Z,57.07
2023-03-06T13:20:44.783Z,54.73
2023-03-06T13:24:11.286Z,55.34
2023-03-06T13:27:49.816Z,55.72
2023-03-06T13:30:58.265Z,55.97
2023-03-06T13:34:33.653Z,57.23
2023-03-06T13:37:44.509Z,57.28
2023-03-06T13:41:31.240Z,57.05
2023-03-06T13:44:40.993Z,58.00
2023-03-06T13:51:32.443Z,58.32
2023-03-06T13:54:58.312Z,55.44
2023-03-06T13:58:40.302Z,56.07
2023-03-06T14:02:24.348Z,56.62
2023-03-06T14:05:43.938Z,58.39
2023-03-06T14:08:53.283Z,56.13
2023-03-06T14:12:31.333Z,57.05
2023-03-06T14:15:49.407Z,58.38
2023-03-06T14:19:00.725Z,56.96
2023-03-06T14:22:10.226Z,58.26
2023-03-06T14:25:38.266Z,60.64
2023-03-06T14:28:46.325Z,61.00
2023-03-06T14:32:04.318Z,61.23
2023-03-06T14:35:25.125Z,62.56
2023-03-06T14:38:37.406Z,63.14
2023-03-06T14:41:45.885Z,63.71
2023-03-06T14:44:56.344Z,64.20
2023-03-06T14:48:13.389Z,63.70
2023-03-06T14:54:42.252Z,64.10
2023-03-06T14:58:04.284Z,63.95
2023-03-06T15:01:14.846Z,67.10
2023-03-06T15:04:38.325Z,64.13
2023-03-06T15:07:41.913Z,66.07
2023-03-06T15:11:07.296Z,61.70
2023-03-06T15:14:26.416Z,62.97
2023-03-06T15:17:40.530Z,60.33
2023-03-06T15:20:54.379Z,59.38
2023-03-06T15:24:32.706Z,60.10
2023-03-06T15:27:47.286Z,58.20
2023-03-06T15:31:01.383Z,60.18
2023-03-06T15:34:25.287Z,60.23
2023-03-06T15:37:34.316Z,57.59
2023-03-06T15:40:42.265Z,58.33
2023-03-06T15:43:50.988Z,59.03
2023-03-06T15:47:07.816Z,63.45
2023-03-06T15:50:22.027Z,61.90
2023-03-06T15:53:33.797Z,61.05
2023-03-06T15:56:51.313Z,61.80
2023-03-06T15:59:54.061Z,63.97
2023-03-06T16:03:11.347Z,60.34
2023-03-06T16:06:16.866Z,60.39
2023-03-06T16:09:31.371Z,59.24
2023-03-06T16:12:57.307Z,61.74
2023-03-06T16:16:13.370Z,63.44
2023-03-06T16:19:27.307Z,61.58
2023-03-06T16:23:07.403Z,62.86
2023-03-06T16:26:23.107Z,62.34
2023-03-06T16:29:33.459Z,58.78
2023-03-06T16:32:42.054Z,60.12
2023-03-06T16:35:50.388Z,63.42
2023-03-06T16:38:58.978Z,58.07
2023-03-06T16:42:07.390Z,58.62
2023-03-06T16:45:24.289Z,60.89
2023-03-06T16:48:33.377Z,62.42
2023-03-06T16:51:48.340Z,62.71
2023-03-06T16:54:57.371Z,64.44
2023-03-06T16:58:06.223Z,62.12
2023-03-06T17:01:16.343Z,61.45
2023-03-06T17:04:32.365Z,61.79
2023-03-06T17:07:35.328Z,63.05
2023-03-06T17:10:50.347Z,63.98
2023-03-06T17:13:52.583Z,64.83
2023-03-06T17:17:07.404Z,66.09
2023-03-06T17:20:11.005Z,67.21
2023-03-06T17:23:28.415Z,67.54
2023-03-06T17:26:43.465Z,67.88
2023-03-06T17:29:52.365Z,68.46
2023-03-06T17:33:01.374Z,68.52
2023-03-06T17:36:10.426Z,68.64
2023-03-06T17:39:25.716Z,68.93
2023-03-06T17:42:28.232Z,69.35
2023-03-06T17:45:43.318Z,69.64
2023-03-06T17:48:51.173Z,69.30
2023-03-06T17:52:09.371Z,69.63
2023-03-06T17:55:24.329Z,69.67
2023-03-06T17:58:27.088Z,69.52
2023-03-06T18:01:41.506Z,69.45
2023-03-06T18:04:50.374Z,69.24
2023-03-06T18:08:05.360Z,68.98
2023-03-06T18:11:21.388Z,69.06
2023-03-06T18:14:32.795Z,69.25
2023-03-06T18:17:47.347Z,69.13
2023-03-06T18:21:03.433Z,68.94
2023-03-06T18:24:05.615Z,69.56
2023-03-06T18:27:20.376Z,69.34
2023-03-06T18:30:22.436Z,69.27
2023-03-06T18:33:38.498Z,69.22
2023-03-06T18:36:48.367Z,69.41
2023-03-06T18:39:57.166Z,69.38
2023-03-06T18:43:06.418Z,69.98
2023-03-06T18:46:14.970Z,69.47
2023-03-06T18:49:23.526Z,69.52
2023-03-06T18:52:40.365Z,69.85
2023-03-06T18:55:51.307Z,69.52
2023-03-06T18:59:10.513Z,69.66
2023-03-06T19:02:13.088Z,71.27
2023-03-06T19:05:27.528Z,72.56
2023-03-06T19:08:45.379Z,72.67
2023-03-06T19:11:54.995Z,72.81
2023-03-06T19:15:10.513Z,74.21
2023-03-06T19:18:16.470Z,73.74
2023-03-06T19:21:34.562Z,73.54
2023-03-06T19:24:36.676Z,73.36
2023-03-06T19:27:51.379Z,74.11
2023-03-06T19:31:00.599Z,75.36
2023-03-06T19:34:09.410Z,74.06
2023-03-06T19:37:18.029Z,75.23
2023-03-06T19:40:26.501Z,73.74
2023-03-06T19:43:35.410Z,73.77
2023-03-06T19:46:43.671Z,73.44
2023-03-06T19:49:52.101Z,74.16
2023-03-06T19:53:00.380Z,74.08
2023-03-06T19:56:20.372Z,73.77
2023-03-06T19:59:22.417Z,74.74
2023-03-06T20:02:37.455Z,74.67
2023-03-06T20:05:46.302Z,74.12
2023-03-06T20:09:01.637Z,74.81
2023-03-06T20:12:23.466Z,73.60
2023-03-06T20:15:25.369Z,73.81
2023-03-06T20:18:40.381Z,74.06
2023-03-06T20:21:42.514Z,73.54
2023-03-06T20:24:57.434Z,74.24
2023-03-06T20:27:59.258Z,74.64
2023-03-06T20:31:20.516Z,74.23
2023-03-06T20:34:29.425Z,74.79
2023-03-06T20:37:38.266Z,74.48
2023-03-06T20:40:48.522Z,74.42
2023-03-06T20:44:06.422Z,74.72
2023-03-06T20:47:18.052Z,74.73
2023-03-06T20:50:27.417Z,74.84
2023-03-06T20:53:35.986Z,74.76
2023-03-06T20:56:44.388Z,74.23
2023-03-06T20:59:53.094Z,74.01
2023-03-06T21:03:01.499Z,73.54
2023-03-06T21:06:16.445Z,74.05
2023-03-06T21:09:18.475Z,73.70
2023-03-06T21:12:40.412Z,73.58
2023-03-06T21:15:43.303Z,73.48
2023-03-06T21:19:00.596Z,73.32
2023-03-06T21:22:09.441Z,73.76
2023-03-06T21:25:24.439Z,73.78
2023-03-06T21:28:26.306Z,73.67
2023-03-06T21:31:42.586Z,73.99
2023-03-06T21:34:51.227Z,73.39
2023-03-06T21:37:59.432Z,73.42
2023-03-06T21:41:12.607Z,74.55
2023-03-06T21:44:20.514Z,74.71
2023-03-06T21:47:29.033Z,75.04
2023-03-06T21:50:37.457Z,74.81
2023-03-06T21:53:47.912Z,75.35
2023-03-06T21:56:56.538Z,75.32
2023-03-06T22:00:05.937Z,75.53
2023-03-06T22:03:20.426Z,75.17
2023-03-06T22:06:31.459Z,75.12
2023-03-06T22:09:46.475Z,74.91
2023-03-06T22:12:55.773Z,75.00
2023-03-06T22:16:11.581Z,74.95
2023-03-06T22:19:13.645Z,75.09
2023-03-06T22:22:29.468Z,74.81
2023-03-06T22:25:37.478Z,74.80
2023-03-06T22:28:52.504Z,74.96
2023-03-06T22:31:54.396Z,75.11
2023-03-06T22:35:09.442Z,75.00
2023-03-06T22:38:17.499Z,74.37
2023-03-06T22:41:33.485Z,74.59
2023-03-06T22:44:48.446Z,74.58
2023-03-06T22:48:10.898Z,74.69
2023-03-06T22:51:17.756Z,75.07
2023-03-06T22:54:32.446Z,74.86
2023-03-06T22:57:34.252Z,75.06
2023-03-06T23:00:49.450Z,75.00
2023-03-06T23:03:53.887Z,74.85
2023-03-06T23:07:08.486Z,74.89
2023-03-06T23:10:17.494Z,74.56
2023-03-06T23:13:32.829Z,74.58
2023-03-06T23:16:42.492Z,75.10
2023-03-06T23:19:51.122Z,76.00
2023-03-06T23:22:59.493Z,77.97
2023-03-06T23:26:08.788Z,78.38
2023-03-06T23:29:17.516Z,78.04
2023-03-06T23:32:32.588Z,77.51
2023-03-06T23:35:35.913Z,77.67
2023-03-06T23:38:51.522Z,76.78
2023-03-06T23:41:53.462Z,76.90
2023-03-06T23:45:08.538Z,76.99
2023-03-06T23:48:10.654Z,76.83
2023-03-06T23:51:28.614Z,77.01
2023-03-06T23:54:37.463Z,76.47
2023-03-06T23:57:52.512Z,76.70
